Time;durP1;ratioP1;P1;durP2;ratioP2;P2;SDS_P1;SDS_P2;PMS_P1;PMS_P2;Temp;Humidity;BMP_temperature;BMP_pressure;BME280_temperature;BME280_humidity;BME280_pressure;Samples;Min_cycle;Max_cycle;Signal;HPM_P1;HPM_P2
2022/03/17 00:00:08;;;;;;;7.70;4.03;;;;;;;0.75;40.77;101688.09;1649199;86;22447;-59
2022/03/17 00:02:37;;;;;;;7.42;4.15;;;;;;;0.97;40.47;101695.44;1648915;86;21648;-60
2022/03/17 00:05:08;;;;;;;8.63;4.50;;;;;;;0.91;40.54;101690.64;1651429;86;21040;-61
2022/03/17 00:07:40;;;;;;;8.00;4.03;;;;;;;0.99;40.21;101681.25;1651199;86;21037;-59
2022/03/17 00:10:11;;;;;;;7.90;3.95;;;;;;;1.13;39.99;101683.39;1658191;86;21617;-58
2022/03/17 00:12:39;;;;;;;8.60;4.05;;;;;;;0.92;40.21;101674.34;1658702;86;20972;-58
2022/03/17 00:15:08;;;;;;;7.50;3.60;;;;;;;1.11;39.96;101674.14;1658761;86;21278;-59
2022/03/17 00:17:36;;;;;;;6.83;3.90;;;;;;;1.09;40.00;101681.09;1650986;85;21090;-58
2022/03/17 00:20:10;;;;;;;9.08;3.72;;;;;;;0.91;40.14;101677.37;1651715;86;21031;-59
2022/03/17 00:22:35;;;;;;;8.33;3.83;;;;;;;0.97;40.11;101682.61;1651187;86;20964;-59
2022/03/17 00:25:05;;;;;;;11.70;3.65;;;;;;;1.19;39.80;101668.92;1651258;86;21095;-60
2022/03/17 00:27:33;;;;;;;8.80;3.62;;;;;;;1.02;39.83;101661.80;1651210;86;21238;-60
2022/03/17 00:30:01;;;;;;;10.20;4.10;;;;;;;0.99;39.87;101669.70;1651775;86;21075;-59
2022/03/17 00:32:29;;;;;;;7.87;3.65;;;;;;;0.94;39.94;101664.80;1651621;86;20997;-60
2022/03/17 00:37:42;;;;;;;7.42;3.62;;;;;;;0.58;40.37;101672.35;1644510;86;21097;-59
2022/03/17 00:40:10;;;;;;;7.92;3.98;;;;;;;0.84;40.13;101671.38;1651678;86;21271;-57
2022/03/17 00:42:39;;;;;;;8.73;3.92;;;;;;;0.92;39.82;101666.18;1651350;86;20995;-60
2022/03/17 00:45:09;;;;;;;8.83;4.05;;;;;;;0.55;40.22;101664.81;1651275;86;20929;-57
2022/03/17 00:47:37;;;;;;;9.33;3.50;;;;;;;0.41;40.58;101671.14;1651256;86;20925;-58
2022/03/17 00:50:07;;;;;;;7.40;3.70;;;;;;;0.76;40.10;101660.26;1651824;86;21052;-59
2022/03/17 00:52:34;;;;;;;7.83;3.62;;;;;;;0.87;39.86;101663.48;1651376;86;21471;-61
2022/03/17 00:55:05;;;;;;;7.00;3.37;;;;;;;0.79;39.94;101665.66;1651734;86;21089;-59
2022/03/17 00:57:36;;;;;;;7.92;3.00;;;;;;;0.78;39.93;101664.01;1651309;86;21013;-57
2022/03/17 01:00:05;;;;;;;9.53;3.65;;;;;;;0.74;39.91;101668.48;1651554;86;21072;-57
2022/03/17 01:02:35;;;;;;;7.97;3.55;;;;;;;0.71;39.81;101672.03;1651009;86;22335;-58
2022/03/17 01:05:03;;;;;;;7.10;3.20;;;;;;;0.85;39.58;101667.89;1651522;86;21314;-59
2022/03/17 01:07:32;;;;;;;6.62;3.80;;;;;;;0.93;39.37;101670.39;1651518;86;21098;-57
2022/03/17 01:10:01;;;;;;;8.35;3.92;;;;;;;0.73;39.66;101674.08;1651852;86;21021;-58
2022/03/17 01:12:29;;;;;;;9.95;4.03;;;;;;;0.86;39.51;101673.39;1650989;86;21096;-58
2022/03/17 01:14:57;;;;;;;7.50;3.65;;;;;;;0.82;39.55;101677.05;1651703;86;21171;-59
2022/03/17 01:17:26;;;;;;;8.30;3.12;;;;;;;0.78;39.57;101671.70;1640615;86;21295;-57
2022/03/17 01:19:53;;;;;;;5.85;2.85;;;;;;;0.92;39.38;101666.64;1651604;86;21051;-57
2022/03/17 01:22:23;;;;;;;8.55;3.45;;;;;;;0.89;39.36;101673.22;1651081;86;20973;-57
2022/03/17 01:24:54;;;;;;;8.28;3.60;;;;;;;0.88;39.27;101670.30;1651600;86;21079;-57
2022/03/17 01:27:23;;;;;;;6.92;3.37;;;;;;;0.83;39.37;101667.95;1641167;86;21190;-57
2022/03/17 01:29:51;;;;;;;8.35;3.72;;;;;;;0.72;39.51;101669.86;1651468;86;21289;-59
2022/03/17 01:32:18;;;;;;;9.53;3.70;;;;;;;0.67;39.58;101673.12;1651450;86;21096;-57
2022/03/17 01:34:45;;;;;;;7.10;3.92;;;;;;;0.59;39.65;101673.17;1651175;86;20945;-59
2022/03/17 01:37:12;;;;;;;7.97;3.20;;;;;;;0.46;39.84;101671.28;1651415;86;21130;-58
2022/03/17 01:39:39;;;;;;;7.83;3.50;;;;;;;0.47;40.04;101667.80;1651137;86;21008;-59
2022/03/17 01:42:09;;;;;;;9.05;3.90;;;;;;;0.51;39.81;101669.75;1651431;86;21178;-58
2022/03/17 01:44:37;;;;;;;7.35;3.80;;;;;;;0.48;39.93;101673.30;1651425;86;21167;-58
2022/03/17 01:49:51;;;;;;;6.95;3.98;;;;;;;0.46;40.09;101678.16;1651513;86;21023;-57
2022/03/17 01:52:18;;;;;;;7.75;3.58;;;;;;;0.61;39.82;101668.34;1651506;86;21022;-57
2022/03/17 01:54:45;;;;;;;6.95;3.08;;;;;;;0.51;39.87;101671.03;1651140;86;21328;-58
2022/03/17 01:57:13;;;;;;;10.08;3.92;;;;;;;0.59;39.81;101668.05;1651287;86;21103;-59
2022/03/17 01:59:40;;;;;;;9.93;4.37;;;;;;;0.52;39.93;101675.23;1651536;86;21103;-57
2022/03/17 02:02:10;;;;;;;8.40;3.58;;;;;;;0.54;39.87;101673.89;1651479;86;20968;-59
2022/03/17 02:04:40;;;;;;;5.80;2.83;;;;;;;0.68;39.64;101681.21;1652016;86;20932;-61
2022/03/17 02:07:08;;;;;;;8.35;3.35;;;;;;;0.54;39.78;101679.84;1651497;86;21181;-61
2022/03/17 02:09:37;;;;;;;7.45;3.52;;;;;;;0.60;39.74;101684.63;1652031;86;21043;-59
2022/03/17 02:15:00;;;;;;;7.20;2.90;;;;;;;0.62;39.66;101687.95;1651568;86;22217;-57
2022/03/17 02:17:30;;;;;;;6.20;3.20;;;;;;;0.69;39.44;101692.30;1651898;86;21577;-57
2022/03/17 02:20:01;;;;;;;6.28;3.17;;;;;;;0.53;39.61;101683.33;1652457;86;21475;-58
2022/03/17 02:22:29;;;;;;;7.53;3.33;;;;;;;0.42;39.78;101685.64;1641892;86;20945;-60
2022/03/17 02:27:46;;;;;;;6.72;3.30;;;;;;;0.49;39.64;101690.80;1645055;86;20929;-57
2022/03/17 02:30:19;;;;;;;7.05;3.00;;;;;;;0.51;39.54;101681.75;1652262;86;21024;-59
2022/03/17 02:32:47;;;;;;;9.50;2.85;;;;;;;0.15;39.84;101682.78;1652129;86;21275;-57
2022/03/17 02:35:22;;;;;;;6.33;3.20;;;;;;;0.24;39.93;101676.73;1652688;86;20997;-57
2022/03/17 02:37:49;;;;;;;10.98;3.10;;;;;;;0.05;40.04;101682.45;1651901;86;21033;-57
2022/03/17 02:40:16;;;;;;;7.85;3.17;;;;;;;-0.10;40.46;101688.38;1651383;86;21077;-58
2022/03/17 02:42:45;;;;;;;9.58;3.85;;;;;;;-0.11;40.41;101688.83;1652349;86;21118;-57
2022/03/17 02:45:13;;;;;;;9.78;3.92;;;;;;;0.10;40.23;101695.84;1652784;86;21434;-59
2022/03/17 02:47:41;;;;;;;6.85;3.05;;;;;;;0.05;40.19;101699.12;1652806;86;21056;-58
2022/03/17 02:50:10;;;;;;;9.53;3.75;;;;;;;0.07;40.17;101699.02;1652218;86;21004;-61
2022/03/17 02:52:39;;;;;;;6.75;3.50;;;;;;;0.15;39.90;101699.45;1652544;86;21040;-58
2022/03/17 02:55:10;;;;;;;8.45;3.15;;;;;;;-0.06;40.06;101697.10;1652736;86;21055;-57
2022/03/17 02:57:40;;;;;;;9.07;3.17;;;;;;;0.12;39.86;101708.61;1652540;86;21321;-58
2022/03/17 03:00:10;;;;;;;7.05;2.90;;;;;;;0.12;39.86;101708.61;1651117;86;22138;-60
2022/03/17 03:02:37;;;;;;;10.60;3.58;;;;;;;0.15;39.82;101700.30;1652162;86;21115;-57
2022/03/17 03:05:05;;;;;;;9.70;2.77;;;;;;;0.12;39.84;101706.05;1651852;86;21080;-58
2022/03/17 03:07:34;;;;;;;7.53;2.83;;;;;;;-0.20;40.38;101706.40;1651454;86;20921;-58
2022/03/17 03:10:02;;;;;;;7.10;2.85;;;;;;;-0.41;40.45;101712.17;1651116;86;21276;-60
2022/03/17 03:12:31;;;;;;;5.92;2.87;;;;;;;0.06;40.08;101703.78;1651543;86;21056;-57
2022/03/17 03:14:59;;;;;;;6.47;3.37;;;;;;;0.03;39.89;101707.78;1651849;86;21041;-57
2022/03/17 03:17:27;;;;;;;7.25;3.00;;;;;;;-0.05;40.00;101710.74;1651778;86;21160;-58
2022/03/17 03:19:54;;;;;;;8.40;2.95;;;;;;;-0.21;40.13;101712.44;1651207;86;21090;-58
2022/03/17 03:22:22;;;;;;;7.37;2.92;;;;;;;-0.08;40.15;101716.02;1650614;86;21300;-58
2022/03/17 03:24:50;;;;;;;5.97;2.67;;;;;;;0.01;39.90;101713.00;1651701;86;21093;-58
2022/03/17 03:27:17;;;;;;;7.53;3.10;;;;;;;0.03;39.89;101710.34;1651821;86;21081;-58
2022/03/17 03:29:46;;;;;;;6.33;2.95;;;;;;;-0.01;39.85;101714.34;1650991;86;20981;-60
2022/03/17 03:32:14;;;;;;;6.45;3.00;;;;;;;0.09;39.86;101706.20;1651192;86;21105;-60
2022/03/17 03:34:41;;;;;;;7.60;3.55;;;;;;;0.22;39.59;101710.59;1651657;86;21287;-58
2022/03/17 03:37:25;;;;;;;9.63;3.52;;;;;;;0.18;39.64;101712.12;1651464;86;21095;-59
2022/03/17 03:39:55;;;;;;;7.80;3.17;;;;;;;0.19;39.72;101715.91;1651057;85;22515;-60
2022/03/17 03:42:23;;;;;;;6.97;3.25;;;;;;;0.29;39.52;101710.27;1651504;86;21125;-59
2022/03/17 03:44:51;;;;;;;6.78;3.02;;;;;;;0.48;39.43;101709.67;1651618;86;21012;-59
2022/03/17 03:47:19;;;;;;;9.98;3.42;;;;;;;0.46;39.45;101707.66;1651453;86;21251;-61
2022/03/17 03:49:46;;;;;;;5.90;3.22;;;;;;;0.56;39.42;101713.93;1651450;86;21186;-59
2022/03/17 03:52:14;;;;;;;7.30;2.95;;;;;;;0.66;39.20;101704.83;1651165;86;21017;-59
2022/03/17 03:54:42;;;;;;;9.63;3.35;;;;;;;0.63;39.29;101708.02;1651519;86;21179;-59
2022/03/17 03:57:10;;;;;;;8.90;3.60;;;;;;;0.61;39.32;101709.40;1651572;86;21616;-60
2022/03/17 03:59:38;;;;;;;10.38;3.20;;;;;;;0.68;39.24;101704.31;1651482;86;21379;-59
2022/03/17 04:02:08;;;;;;;9.98;3.72;;;;;;;0.65;39.24;101695.95;1690244;80;20976;-60
2022/03/17 04:04:42;;;;;;;10.25;4.05;;;;;;;0.59;39.33;101703.50;1696691;83;21036;-59
2022/03/17 04:07:10;;;;;;;8.88;3.40;;;;;;;0.80;39.27;101700.70;1696100;83;21575;-62
2022/03/17 04:09:40;;;;;;;11.28;3.47;;;;;;;0.92;39.19;101709.00;1696804;84;21514;-58
2022/03/17 04:12:14;;;;;;;10.28;3.30;;;;;;;1.12;39.07;101712.56;1695048;84;22352;-59
2022/03/17 04:14:41;;;;;;;7.42;3.52;;;;;;;1.42;38.71;101709.17;1696733;83;20919;-60
2022/03/17 04:17:08;;;;;;;8.35;3.17;;;;;;;1.84;37.96;101709.69;1695534;84;21563;-59
2022/03/17 04:19:37;;;;;;;8.33;3.58;;;;;;;2.02;37.39;101710.35;1696303;83;20978;-65
2022/03/17 04:22:04;;;;;;;9.25;3.58;;;;;;;1.78;37.56;101721.64;1696067;83;21548;-61
2022/03/17 04:24:33;;;;;;;7.80;3.10;;;;;;;2.00;37.65;101719.89;1687906;84;21055;-61
2022/03/17 04:27:01;;;;;;;6.50;3.15;;;;;;;2.18;37.11;101712.36;1723857;82;21058;-58
2022/03/17 04:29:29;;;;;;;8.10;3.17;;;;;;;2.35;36.63;101724.22;1736766;82;20992;-61
2022/03/17 04:31:58;;;;;;;9.13;3.52;;;;;;;2.35;36.74;101728.51;1693969;84;21033;-61
2022/03/17 04:34:26;;;;;;;6.30;2.98;;;;;;;2.31;36.90;101724.47;1682850;84;21236;-61
2022/03/17 04:36:54;;;;;;;8.40;2.95;;;;;;;2.14;37.02;101732.76;1692781;84;21262;-61
2022/03/17 04:39:22;;;;;;;8.00;3.42;;;;;;;2.32;36.78;101730.00;1693019;84;21102;-61
2022/03/17 04:41:51;;;;;;;6.78;3.52;;;;;;;2.26;36.77;101732.94;1695849;84;20975;-65
2022/03/17 04:44:19;;;;;;;7.67;3.33;;;;;;;2.38;36.73;101732.19;1695928;84;21037;-63
2022/03/17 04:46:47;;;;;;;9.48;3.50;;;;;;;2.54;36.62;101731.63;1696180;83;21595;-61
2022/03/17 04:49:15;;;;;;;8.33;3.40;;;;;;;2.77;36.34;101737.10;1696209;84;21473;-60
2022/03/17 04:51:43;;;;;;;9.08;3.77;;;;;;;2.77;35.92;101743.54;1687129;83;21045;-60
2022/03/17 04:54:11;;;;;;;7.78;3.42;;;;;;;2.91;36.29;101737.86;1694486;84;21049;-60
2022/03/17 04:56:38;;;;;;;11.18;4.05;;;;;;;3.36;35.95;101737.59;1688356;84;20951;-61
2022/03/17 04:59:05;;;;;;;23.80;4.05;;;;;;;3.52;35.67;101736.95;1696354;83;21133;-60
2022/03/17 05:01:35;;;;;;;7.80;3.12;;;;;;;3.65;35.27;101736.52;1705646;81;20949;-60
2022/03/17 05:04:04;;;;;;;9.53;3.33;;;;;;;3.74;35.71;101727.80;1718831;82;21475;-59
2022/03/17 05:06:32;;;;;;;6.15;2.70;;;;;;;4.01;35.23;101731.56;1715720;82;21603;-59
2022/03/17 05:09:00;;;;;;;7.40;3.22;;;;;;;4.42;34.69;101728.72;1719583;83;21999;-59
2022/03/17 05:11:27;;;;;;;8.25;3.45;;;;;;;4.66;34.47;101729.22;1719682;83;21388;-58
2022/03/17 05:13:55;;;;;;;8.33;3.47;;;;;;;4.68;33.91;101733.83;1719092;82;21295;-63
2022/03/17 05:16:23;;;;;;;7.90;3.85;;;;;;;4.56;33.82;101736.81;1718972;83;22090;-62
2022/03/17 05:18:51;;;;;;;6.75;3.00;;;;;;;4.33;33.70;101729.38;1719286;82;20956;-60
2022/03/17 05:21:20;;;;;;;7.20;3.50;;;;;;;4.35;33.88;101746.86;1719436;83;20936;-59
2022/03/17 05:23:47;;;;;;;9.35;3.30;;;;;;;4.33;34.02;101740.98;1718842;83;21056;-63
2022/03/17 05:26:15;;;;;;;7.87;3.08;;;;;;;4.43;33.98;101743.27;1719434;82;22374;-59
2022/03/17 05:28:43;;;;;;;7.35;3.50;;;;;;;4.61;34.22;101735.53;1718726;82;21008;-58
2022/03/17 05:31:10;;;;;;;7.20;3.20;;;;;;;4.96;33.93;101734.78;1719701;83;22302;-59
2022/03/17 05:33:38;;;;;;;8.40;3.90;;;;;;;5.10;33.45;101744.14;1719204;82;20981;-62
2022/03/17 05:36:05;;;;;;;7.15;3.37;;;;;;;5.24;33.22;101747.03;1719068;83;21046;-59
2022/03/17 05:38:33;;;;;;;6.78;3.30;;;;;;;5.46;32.52;101741.94;1719289;82;21130;-61
2022/03/17 05:41:01;;;;;;;9.73;3.42;;;;;;;5.37;33.00;101745.19;1719034;82;21755;-60
2022/03/17 05:43:29;;;;;;;5.33;2.60;;;;;;;5.83;32.50;101752.11;1719188;83;21111;-58
2022/03/17 05:45:57;;;;;;;7.25;3.92;;;;;;;5.83;31.95;101741.76;1719125;82;20984;-63
2022/03/17 05:48:25;;;;;;;7.87;3.50;;;;;;;5.89;32.38;101738.72;1741336;81;21010;-60
2022/03/17 05:50:53;;;;;;;6.97;3.30;;;;;;;5.89;32.26;101738.72;1752382;81;21265;-59
2022/03/17 05:53:20;;;;;;;8.65;3.45;;;;;;;6.11;31.98;101735.84;1752999;81;20951;-62
2022/03/17 05:55:48;;;;;;;7.33;2.72;;;;;;;6.08;32.45;101740.30;1752953;81;21437;-61
2022/03/17 05:58:16;;;;;;;8.75;3.27;;;;;;;6.02;32.32;101732.16;1742690;81;21059;-60
2022/03/17 06:00:43;;;;;;;8.90;3.42;;;;;;;6.10;32.19;101737.61;1715666;83;21105;-62
2022/03/17 06:03:11;;;;;;;6.40;3.45;;;;;;;6.17;32.51;101737.46;1737766;81;21630;-60
2022/03/17 06:05:38;;;;;;;6.97;3.15;;;;;;;6.34;31.87;101737.47;1736695;82;21418;-62
2022/03/17 06:08:06;;;;;;;8.05;3.55;;;;;;;6.46;32.09;101728.73;1694579;84;20957;-61
2022/03/17 06:10:37;;;;;;;7.08;3.45;;;;;;;6.55;31.49;101733.66;1694896;84;20960;-60
2022/03/17 06:13:05;;;;;;;7.58;3.60;;;;;;;6.42;31.62;101741.58;1694791;84;21503;-59
2022/03/17 06:15:34;;;;;;;9.45;3.55;;;;;;;6.65;31.32;101733.78;1693126;83;21000;-63
2022/03/17 06:18:04;;;;;;;8.43;3.75;;;;;;;6.56;31.30;101740.52;1686429;83;21019;-59
2022/03/17 06:20:34;;;;;;;9.13;3.40;;;;;;;6.88;31.61;101738.43;1690671;83;21583;-59
2022/03/17 06:23:04;;;;;;;12.90;4.42;;;;;;;7.38;30.90;101717.94;1666885;84;21010;-59
2022/03/17 06:25:33;;;;;;;7.70;3.72;;;;;;;7.76;30.93;101721.24;1665860;84;21106;-63
2022/03/17 06:28:03;;;;;;;6.15;3.12;;;;;;;8.36;30.29;101723.48;1662976;84;21327;-60
2022/03/17 06:30:35;;;;;;;6.67;3.95;;;;;;;8.88;29.25;101720.26;1642121;86;21083;-64
2022/03/17 06:33:04;;;;;;;5.97;3.42;;;;;;;9.02;29.21;101721.64;1662803;84;21113;-59
2022/03/17 06:35:32;;;;;;;6.45;3.72;;;;;;;9.31;28.50;101712.50;1661730;84;21157;-61
2022/03/17 06:38:00;;;;;;;6.50;3.52;;;;;;;9.43;27.78;101712.72;1662777;84;20920;-59
2022/03/17 06:40:28;;;;;;;8.65;4.37;;;;;;;9.61;27.28;101719.30;1662830;84;21280;-63
2022/03/17 06:42:56;;;;;;;7.08;3.30;;;;;;;9.39;27.70;101710.51;1662225;84;20920;-60
2022/03/17 06:45:24;;;;;;;7.30;3.40;;;;;;;9.78;27.59;101711.74;1678245;84;21114;-60
2022/03/17 06:47:51;;;;;;;9.23;3.72;;;;;;;10.06;27.06;101710.80;1688778;84;20987;-59
2022/03/17 06:50:23;;;;;;;6.17;3.70;;;;;;;10.07;27.01;101711.61;1689484;84;21200;-59
2022/03/17 06:52:48;;;;;;;8.00;3.58;;;;;;;9.65;27.16;101710.73;1688478;84;21316;-60
2022/03/17 06:55:16;;;;;;;10.23;3.58;;;;;;;9.34;27.26;101713.53;1689357;84;21093;-60
2022/03/17 06:57:45;;;;;;;8.43;4.25;;;;;;;9.13;27.88;101711.11;1688835;84;21023;-60
2022/03/17 07:00:14;;;;;;;8.93;3.58;;;;;;;9.59;27.57;101706.11;1689549;84;21122;-60
2022/03/17 07:02:41;;;;;;;8.63;3.70;;;;;;;9.94;27.14;101714.06;1703329;82;21040;-65
2022/03/17 07:05:10;;;;;;;7.17;3.87;;;;;;;10.22;26.88;101707.08;1714113;83;21348;-60
2022/03/17 07:07:38;;;;;;;7.67;4.10;;;;;;;10.37;26.55;101706.14;1755023;81;21009;-66
2022/03/17 07:10:07;;;;;;;11.15;3.55;;;;;;;10.37;26.40;101701.41;1755645;81;21575;-60
2022/03/17 07:12:36;;;;;;;8.00;3.87;;;;;;;10.48;26.35;101694.20;1719240;83;20914;-61
2022/03/17 07:15:06;;;;;;;7.95;3.58;;;;;;;10.47;26.27;101696.97;1719786;83;22288;-60
2022/03/17 07:17:40;;;;;;;7.65;3.47;;;;;;;10.56;25.69;101701.78;1719307;83;21210;-63
2022/03/17 07:20:10;;;;;;;7.42;3.60;;;;;;;10.22;26.20;101703.66;1719820;83;21509;-60
2022/03/17 07:22:41;;;;;;;7.15;3.55;;;;;;;10.40;26.17;101703.25;1719621;83;21543;-60
2022/03/17 07:25:10;;;;;;;6.80;3.47;;;;;;;10.65;26.04;101700.91;1719755;82;21020;-62
2022/03/17 07:27:43;;;;;;;9.23;3.77;;;;;;;10.52;26.32;101699.13;1718768;82;20913;-60
2022/03/17 07:30:19;;;;;;;7.10;4.08;;;;;;;10.87;26.42;101695.25;1719261;82;21238;-63
2022/03/17 07:32:50;;;;;;;6.50;3.25;;;;;;;11.42;26.21;101695.02;1719200;83;21144;-59
2022/03/17 07:35:19;;;;;;;9.70;3.67;;;;;;;11.78;25.08;101698.84;1719544;83;21091;-59
2022/03/17 07:37:47;;;;;;;7.37;3.62;;;;;;;11.22;25.61;101687.55;1719597;83;20949;-60
2022/03/17 07:40:14;;;;;;;6.08;3.20;;;;;;;11.45;25.69;101684.27;1719123;83;20997;-59
2022/03/17 07:42:41;;;;;;;7.10;3.55;;;;;;;11.39;24.56;101679.65;1719747;83;21096;-58
2022/03/17 07:45:14;;;;;;;6.87;3.90;;;;;;;10.76;25.53;101692.02;1719386;82;21008;-60
2022/03/17 07:47:50;;;;;;;12.68;4.12;;;;;;;10.77;25.47;101680.16;1709310;83;20996;-61
2022/03/17 07:50:18;;;;;;;10.28;3.95;;;;;;;10.96;25.17;101696.14;1719781;83;22558;-62
2022/03/17 07:52:46;;;;;;;8.13;3.83;;;;;;;10.27;25.65;101701.48;1719782;81;21004;-62
2022/03/17 07:55:14;;;;;;;5.92;3.17;;;;;;;10.12;25.77;101713.33;1719272;81;21288;-60
2022/03/17 07:57:41;;;;;;;8.30;3.62;;;;;;;10.15;25.86;101702.59;1719606;83;21041;-61
2022/03/17 08:00:13;;;;;;;9.28;4.33;;;;;;;10.30;25.82;101697.26;1719146;81;21056;-60
2022/03/17 08:02:41;;;;;;;6.87;3.70;;;;;;;10.43;25.76;101695.14;1709328;82;21001;-61
2022/03/17 08:05:11;;;;;;;10.15;5.20;;;;;;;10.37;26.13;101692.29;1692892;84;21061;-59
2022/03/17 08:07:39;;;;;;;12.75;5.80;;;;;;;10.72;25.65;101698.05;1692984;84;21418;-60
2022/03/17 08:10:09;;;;;;;12.18;6.67;;;;;;;10.90;25.71;101694.11;1692604;84;21035;-65
2022/03/17 08:12:37;;;;;;;9.88;3.65;;;;;;;11.23;25.49;101701.73;1696448;83;21168;-61
2022/03/17 08:15:05;;;;;;;7.62;3.30;;;;;;;11.54;24.84;101698.68;1695666;83;21009;-61
2022/03/17 08:17:33;;;;;;;8.30;3.70;;;;;;;11.41;24.70;101703.83;1696388;84;21141;-61
2022/03/17 08:20:02;;;;;;;7.75;4.10;;;;;;;11.26;24.69;101703.23;1695964;83;21218;-65
2022/03/17 08:22:32;;;;;;;11.20;4.37;;;;;;;10.95;24.73;101708.37;1696180;84;21390;-62
2022/03/17 08:24:59;;;;;;;10.55;4.83;;;;;;;10.59;24.84;101720.56;1695759;83;20990;-59
2022/03/17 08:27:28;;;;;;;8.55;4.45;;;;;;;10.28;25.11;101714.03;1696460;83;21021;-60
2022/03/17 08:29:55;;;;;;;8.90;4.67;;;;;;;9.75;25.72;101724.55;1696112;84;20930;-61
2022/03/17 08:32:23;;;;;;;6.62;3.70;;;;;;;9.52;25.97;101725.84;1695942;84;22447;-60
2022/03/17 08:34:52;;;;;;;18.07;11.97;;;;;;;9.15;26.18;101721.36;1695677;84;21021;-59
2022/03/17 08:37:20;;;;;;;9.08;4.00;;;;;;;8.85;26.68;101733.53;1723788;81;20998;-59
2022/03/17 08:39:48;;;;;;;9.75;3.62;;;;;;;8.62;26.84;101729.05;1718297;82;21066;-62
2022/03/17 08:42:16;;;;;;;7.78;3.77;;;;;;;8.49;26.85;101723.29;1692750;83;21011;-59
2022/03/17 08:44:45;;;;;;;7.12;3.70;;;;;;;8.08;27.18;101733.30;1672481;84;21049;-59
2022/03/17 08:49:59;;;;;;;10.40;3.33;;;;;;;7.23;28.20;101729.91;1688521;84;21083;-61
2022/03/17 08:52:28;;;;;;;9.25;3.55;;;;;;;6.88;29.08;101722.88;1692827;84;20987;-59
2022/03/17 08:54:55;;;;;;;7.30;3.25;;;;;;;6.80;29.21;101726.08;1693300;84;21070;-59
2022/03/17 08:57:23;;;;;;;8.28;3.62;;;;;;;6.89;29.12;101718.03;1696321;83;21242;-58
2022/03/17 08:59:53;;;;;;;8.90;4.05;;;;;;;6.84;29.99;101718.41;1696124;83;21056;-62
2022/03/17 09:02:20;;;;;;;7.12;2.98;;;;;;;7.12;29.85;101734.33;1697680;83;21144;-59
2022/03/17 09:04:48;;;;;;;8.73;3.35;;;;;;;7.31;29.03;101734.03;1718314;83;21054;-58
2022/03/17 09:07:15;;;;;;;9.23;3.67;;;;;;;7.21;28.95;101737.02;1719050;83;21042;-61
2022/03/17 09:09:45;;;;;;;6.62;3.95;;;;;;;7.31;29.21;101734.47;1718634;82;21528;-63
2022/03/17 09:12:12;;;;;;;10.48;3.85;;;;;;;7.59;28.71;101741.31;1708296;81;21013;-62
2022/03/17 09:14:41;;;;;;;7.28;3.20;;;;;;;7.64;28.58;101723.58;1710808;83;21041;-60
2022/03/17 09:17:09;;;;;;;6.17;2.95;;;;;;;7.79;28.84;101714.50;1698788;83;21058;-61
2022/03/17 09:19:38;;;;;;;6.03;2.72;;;;;;;7.93;28.83;101723.26;1715431;83;21548;-63
2022/03/17 09:22:07;;;;;;;6.50;3.62;;;;;;;8.12;28.34;101711.31;1718401;83;21254;-64
2022/03/17 09:24:35;;;;;;;6.72;3.22;;;;;;;8.04;28.24;101728.37;1718934;83;21013;-60
2022/03/17 09:27:03;;;;;;;6.97;3.60;;;;;;;8.12;27.79;101732.09;1707820;81;20930;-61
2022/03/17 09:29:32;;;;;;;6.28;3.35;;;;;;;7.65;28.02;101730.41;1709859;83;20911;-61
2022/03/17 09:32:00;;;;;;;10.35;5.80;;;;;;;7.62;28.88;101737.98;1718141;82;21444;-61
2022/03/17 09:34:32;;;;;;;12.90;4.12;;;;;;;7.83;28.88;101709.88;1717491;83;21534;-59
2022/03/17 09:36:57;;;;;;;5.70;2.98;;;;;;;7.81;28.50;101743.77;1705367;82;21062;-58
2022/03/17 09:39:43;;;;;;;6.40;2.95;;;;;;;7.71;28.68;101732.02;1706560;83;21095;-61
2022/03/17 09:42:08;;;;;;;6.10;3.30;;;;;;;5.82;30.86;101759.53;1707966;83;22055;-58
2022/03/17 09:44:36;;;;;;;5.90;3.45;;;;;;;5.85;31.54;101751.54;1755659;81;20999;-60
2022/03/17 09:47:07;;;;;;;9.25;4.60;;;;;;;5.92;31.56;101747.59;1719260;82;21274;-61
2022/03/17 09:49:36;;;;;;;8.65;3.10;;;;;;;6.13;32.00;101752.06;1718816;83;21569;-59
2022/03/17 09:52:12;;;;;;;7.65;3.87;;;;;;;6.28;31.49;101740.05;1719377;83;21648;-59
2022/03/17 09:54:35;;;;;;;9.38;4.15;;;;;;;6.30;30.58;101757.59;1719138;83;21585;-59
2022/03/17 09:57:04;;;;;;;8.95;3.85;;;;;;;5.76;30.70;101758.71;1719593;81;21065;-63
2022/03/17 09:59:31;;;;;;;13.08;4.33;;;;;;;5.62;31.43;101759.73;1719199;83;21294;-59
2022/03/17 10:01:58;;;;;;;9.18;4.00;;;;;;;5.43;32.60;101760.26;1720090;83;20933;-59
2022/03/17 10:04:28;;;;;;;11.95;4.15;;;;;;;5.61;32.89;101757.61;1680687;82;21110;-59
2022/03/17 10:06:55;;;;;;;8.75;3.58;;;;;;;5.69;32.28;101765.28;1718023;81;21096;-58
2022/03/17 10:09:23;;;;;;;6.17;3.42;;;;;;;5.52;32.17;101752.28;1718439;82;21049;-64
2022/03/17 10:12:03;;;;;;;9.53;4.17;;;;;;;5.65;32.14;101761.27;1719569;82;21158;-59
2022/03/17 10:14:43;;;;;;;9.88;3.52;;;;;;;5.55;32.74;101756.77;1719722;82;21518;-58
2022/03/17 10:17:34;;;;;;;10.45;5.42;;;;;;;6.24;31.87;101762.42;1706856;82;21073;-59
2022/03/17 10:20:22;;;;;;;10.48;4.67;;;;;;;6.44;31.53;101752.66;1710873;81;22185;-57
2022/03/17 10:22:59;;;;;;;6.25;3.33;;;;;;;6.83;31.58;101754.35;1702053;83;21103;-60
2022/03/17 10:25:29;;;;;;;8.13;3.67;;;;;;;7.07;31.20;101753.67;1709148;83;21205;-58
2022/03/17 10:27:57;;;;;;;8.60;3.47;;;;;;;7.32;31.00;101753.00;1719806;83;21065;-62
2022/03/17 10:30:35;;;;;;;11.90;4.58;;;;;;;7.51;30.47;101747.13;1719053;83;21111;-58
2022/03/17 10:33:15;;;;;;;6.95;3.83;;;;;;;7.43;30.50;101756.84;1719896;83;20956;-60
2022/03/17 10:35:46;;;;;;;11.38;4.15;;;;;;;7.28;29.96;101746.42;1719066;83;26975;-61
2022/03/17 10:38:19;;;;;;;8.90;4.10;;;;;;;7.27;30.60;101755.98;1719297;83;21179;-60
2022/03/17 10:41:03;;;;;;;7.97;4.00;;;;;;;7.52;31.15;101762.56;1719829;83;21021;-57
2022/03/17 10:43:33;;;;;;;9.60;4.15;;;;;;;7.76;30.69;101754.52;1719249;83;21136;-59
2022/03/17 10:46:16;;;;;;;8.50;3.77;;;;;;;7.66;29.46;101751.53;1720149;83;21056;-57
2022/03/17 10:49:05;;;;;;;7.87;3.45;;;;;;;7.35;29.24;101754.06;1719601;83;21089;-62
2022/03/17 10:51:38;;;;;;;6.80;3.02;;;;;;;7.49;29.67;101754.20;1720135;82;21139;-59
2022/03/17 10:54:07;;;;;;;11.08;3.90;;;;;;;7.49;29.41;101758.92;1719650;82;20988;-59
2022/03/17 10:56:36;;;;;;;8.23;3.98;;;;;;;7.08;29.64;101766.16;1719031;83;21073;-63
2022/03/17 10:59:05;;;;;;;9.08;3.83;;;;;;;7.35;29.14;101767.03;1719939;83;21657;-58
2022/03/17 11:01:40;;;;;;;7.05;3.95;;;;;;;7.46;29.14;101755.30;1719877;83;21020;-59
2022/03/17 11:04:07;;;;;;;8.38;4.03;;;;;;;7.01;29.29;101765.85;1708159;82;21256;-59
2022/03/17 11:06:38;;;;;;;7.78;4.10;;;;;;;7.14;28.70;101755.31;1698587;83;21022;-59
2022/03/17 11:09:05;;;;;;;9.48;3.80;;;;;;;7.45;29.69;101761.42;1699281;83;21090;-58
2022/03/17 11:11:39;;;;;;;8.15;3.90;;;;;;;7.59;29.73;101762.07;1698725;83;21026;-59
2022/03/17 11:14:09;;;;;;;11.70;4.55;;;;;;;7.43;29.56;101754.25;1698830;83;21513;-62
2022/03/17 11:16:43;;;;;;;8.03;4.00;;;;;;;7.50;30.34;101759.29;1698576;83;22684;-59
2022/03/17 11:19:15;;;;;;;7.90;3.98;;;;;;;7.66;31.11;101764.03;1698881;83;20989;-58
2022/03/17 11:21:46;;;;;;;8.13;5.17;;;;;;;7.60;29.95;101763.23;1699064;83;21137;-62
2022/03/17 11:24:19;;;;;;;;;;;;;;;7.00;29.78;101768.08;1700804;83;21120;-58
2022/03/17 11:26:47;;;;;;;7.65;3.77;;;;;;;6.58;29.99;101751.09;1697768;83;20240;-59
2022/03/17 11:29:18;;;;;;;9.08;3.95;;;;;;;6.50;30.36;101757.34;1698777;83;21144;-59
2022/03/17 11:32:01;;;;;;;12.70;5.03;;;;;;;6.63;30.29;101765.00;1698378;83;21259;-63
2022/03/17 11:34:48;;;;;;;9.85;4.78;;;;;;;6.86;31.19;101759.30;1699150;83;21070;-58
2022/03/17 11:37:26;;;;;;;7.85;4.30;;;;;;;7.17;32.05;101738.21;1685533;82;21067;-60
2022/03/17 11:40:14;;;;;;;8.30;4.17;;;;;;;6.96;33.02;101769.27;1682230;82;21105;-59
2022/03/17 11:42:52;;;;;;;10.38;4.12;;;;;;;6.78;32.95;101770.27;1683669;82;21178;-59
2022/03/17 11:45:22;;;;;;;7.50;3.58;;;;;;;5.72;35.26;101775.38;1696743;82;21530;-59
2022/03/17 11:47:54;;;;;;;11.18;4.17;;;;;;;5.29;34.92;101772.07;1699265;82;21019;-58
2022/03/17 11:50:38;;;;;;;9.65;4.28;;;;;;;5.75;33.59;101768.69;1699297;82;20960;-59
2022/03/17 11:53:07;;;;;;;10.70;4.50;;;;;;;6.08;32.31;101772.66;1699135;82;21586;-59
2022/03/17 11:55:51;;;;;;;6.80;3.75;;;;;;;6.15;32.45;101772.20;1699237;82;21225;-61